Time;durP1;ratioP1;P1;durP2;ratioP2;P2;SDS_P1;SDS_P2;PMS_P1;PMS_P2;Temp;Humidity;BMP_temperature;BMP_pressure;BME280_temperature;BME280_humidity;BME280_pressure;Samples;Min_cycle;Max_cycle;Signal;HPM_P1;HPM_P2
2022/04/24 00:01:38;;;;;;;25.02;18.50;;;;;;;;;;4901248;29;20029;-72
2022/04/24 00:04:04;;;;;;;25.25;18.92;;;;;;;;;;4901755;29;20029;-73
2022/04/24 00:06:34;;;;;;;23.10;16.23;;;;;;;;;;4900611;29;20505;-72
2022/04/24 00:09:00;;;;;;;19.85;15.40;;;;;;;;;;4903426;29;20045;-73
2022/04/24 00:11:27;;;;;;;19.50;13.73;;;;;;;;;;4902823;29;20036;-73
2022/04/24 00:13:53;;;;;;;19.67;14.68;;;;;;;;;;4897491;29;20052;-74
2022/04/24 00:16:19;;;;;;;19.00;13.65;;;;;;;;;;4901553;29;20507;-72
2022/04/24 00:18:45;;;;;;;16.55;13.40;;;;;;;;;;4901038;29;20489;-72
2022/04/24 00:21:11;;;;;;;17.90;13.10;;;;;;;;;;4904405;29;20032;-73
2022/04/24 00:23:37;;;;;;;16.77;13.45;;;;;;;;;;4901171;29;20036;-72
2022/04/24 00:26:04;;;;;;;18.00;13.27;;;;;;;;;;4908850;29;20522;-72
2022/04/24 00:28:30;;;;;;;18.85;12.55;;;;;;;;;;4902602;29;20041;-74
2022/04/24 00:30:56;;;;;;;19.25;11.90;;;;;;;;;;4894786;29;20452;-72
2022/04/24 00:33:22;;;;;;;13.27;11.50;;;;;;;;;;4902622;29;20072;-75
2022/04/24 00:35:48;;;;;;;15.05;11.50;;;;;;;;;;4902070;29;20032;-72
2022/04/24 00:38:14;;;;;;;16.55;12.65;;;;;;;;;;4903164;29;20013;-77
2022/04/24 00:40:40;;;;;;;14.73;12.57;;;;;;;;;;4900598;29;20031;-72
2022/04/24 00:43:07;;;;;;;15.13;11.48;;;;;;;;;;4901401;29;20036;-73
2022/04/24 00:45:35;;;;;;;18.83;12.32;;;;;;;;;;4872648;29;20040;-73
2022/04/24 00:48:01;;;;;;;15.35;12.25;;;;;;;;;;4900066;29;20025;-72
2022/04/24 00:50:27;;;;;;;16.15;11.93;;;;;;;;;;4897014;29;20032;-73
2022/04/24 00:52:53;;;;;;;17.80;13.35;;;;;;;;;;4900038;29;20103;-73
2022/04/24 00:55:23;;;;;;;16.98;11.88;;;;;;;;;;4899574;29;20044;-73
2022/04/24 00:57:49;;;;;;;14.82;11.98;;;;;;;;;;4897219;29;20025;-77
2022/04/24 01:00:15;;;;;;;15.40;11.93;;;;;;;;;;4899872;29;20025;-76
2022/04/24 01:02:41;;;;;;;13.55;11.32;;;;;;;;;;4901187;29;20020;-72
2022/04/24 01:05:08;;;;;;;14.68;11.68;;;;;;;;;;4900908;29;20060;-73
2022/04/24 01:07:34;;;;;;;15.45;11.75;;;;;;;;;;4899797;29;20029;-73
2022/04/24 01:10:00;;;;;;;16.10;11.05;;;;;;;;;;4900239;29;20410;-72
2022/04/24 01:12:26;;;;;;;18.55;11.82;;;;;;;;;;4900721;29;20036;-72
2022/04/24 01:14:55;;;;;;;16.42;10.88;;;;;;;;;;4898890;29;20041;-73
2022/04/24 01:17:21;;;;;;;12.95;10.35;;;;;;;;;;4900823;29;20032;-72
2022/04/24 01:19:47;;;;;;;11.85;9.63;;;;;;;;;;4900759;29;20036;-72
2022/04/24 01:22:18;;;;;;;14.63;10.30;;;;;;;;;;4900695;29;20033;-74
2022/04/24 01:24:44;;;;;;;13.88;9.63;;;;;;;;;;4901811;29;20107;-76
2022/04/24 01:27:10;;;;;;;14.85;9.57;;;;;;;;;;4898968;29;20037;-72
2022/04/24 01:29:36;;;;;;;14.98;9.38;;;;;;;;;;4898994;29;20025;-72
2022/04/24 01:32:02;;;;;;;15.02;9.32;;;;;;;;;;4898729;29;20084;-72
2022/04/24 01:34:31;;;;;;;13.70;9.25;;;;;;;;;;4896885;29;20080;-73
2022/04/24 01:36:57;;;;;;;12.98;8.88;;;;;;;;;;4897909;29;20060;-73
2022/04/24 01:39:23;;;;;;;14.38;8.90;;;;;;;;;;4902286;29;20032;-74
2022/04/24 01:41:51;;;;;;;11.60;9.00;;;;;;;;;;4901117;29;20031;-73
2022/04/24 01:44:17;;;;;;;15.85;9.15;;;;;;;;;;4901250;29;20035;-77
2022/04/24 01:46:43;;;;;;;11.80;8.80;;;;;;;;;;4901174;29;20052;-72
2022/04/24 01:49:10;;;;;;;14.82;8.90;;;;;;;;;;4900683;29;20037;-77
2022/04/24 01:51:36;;;;;;;12.45;8.35;;;;;;;;;;4903985;29;20028;-73
2022/04/24 01:54:02;;;;;;;11.45;7.97;;;;;;;;;;4900442;29;20051;-73
2022/04/24 01:56:28;;;;;;;12.43;8.15;;;;;;;;;;4899073;29;20056;-72
2022/04/24 01:58:55;;;;;;;11.38;7.93;;;;;;;;;;4899062;29;20028;-72
2022/04/24 02:01:21;;;;;;;20.30;8.10;;;;;;;;;;4899412;29;20037;-73
2022/04/24 02:03:47;;;;;;;12.43;7.70;;;;;;;;;;4899385;29;20021;-73
2022/04/24 02:06:13;;;;;;;14.32;8.45;;;;;;;;;;4899454;29;20041;-72
2022/04/24 02:08:39;;;;;;;11.45;7.75;;;;;;;;;;4898763;29;20023;-72
2022/04/24 02:11:06;;;;;;;9.80;7.35;;;;;;;;;;4901206;29;20036;-72
2022/04/24 02:13:33;;;;;;;9.80;7.43;;;;;;;;;;4898611;29;20510;-72
2022/04/24 02:15:59;;;;;;;11.73;8.07;;;;;;;;;;4900485;29;20025;-74
2022/04/24 02:18:25;;;;;;;10.65;7.32;;;;;;;;;;4899524;29;20043;-73
2022/04/24 02:20:51;;;;;;;10.65;7.60;;;;;;;;;;4899152;29;20034;-73
2022/04/24 02:23:17;;;;;;;12.18;7.80;;;;;;;;;;4900417;29;20051;-73
2022/04/24 02:25:43;;;;;;;12.38;7.88;;;;;;;;;;4899390;29;20037;-73
2022/04/24 02:28:09;;;;;;;12.27;7.55;;;;;;;;;;4899535;29;20029;-73
2022/04/24 02:30:35;;;;;;;11.65;8.20;;;;;;;;;;4900122;29;20020;-73
2022/04/24 02:33:01;;;;;;;12.48;7.10;;;;;;;;;;4901428;29;20459;-72
2022/04/24 02:35:30;;;;;;;11.80;7.53;;;;;;;;;;4899298;29;20052;-73
2022/04/24 02:37:56;;;;;;;10.05;7.55;;;;;;;;;;4901324;29;20020;-73
2022/04/24 02:40:22;;;;;;;13.27;7.72;;;;;;;;;;4900128;29;20044;-74
2022/04/24 02:42:50;;;;;;;12.60;7.82;;;;;;;;;;4899316;29;20027;-74
2022/04/24 02:45:18;;;;;;;13.23;8.60;;;;;;;;;;4897496;29;20036;-72
2022/04/24 02:47:44;;;;;;;19.50;9.23;;;;;;;;;;4890968;29;20024;-72
2022/04/24 02:50:10;;;;;;;13.73;8.68;;;;;;;;;;4898419;29;20119;-72
2022/04/24 02:52:53;;;;;;;10.07;8.15;;;;;;;;;;4897992;29;20080;-72
2022/04/24 02:55:20;;;;;;;10.88;8.57;;;;;;;;;;4895912;29;20052;-73
2022/04/24 02:57:46;;;;;;;12.80;8.32;;;;;;;;;;4899384;29;20111;-72
2022/04/24 03:00:25;;;;;;;13.40;8.55;;;;;;;;;;4894543;29;20107;-73
2022/04/24 03:02:51;;;;;;;14.38;7.55;;;;;;;;;;4892626;29;20021;-73
2022/04/24 03:05:19;;;;;;;11.98;8.05;;;;;;;;;;4895475;29;20033;-72
2022/04/24 03:07:45;;;;;;;10.80;7.55;;;;;;;;;;4899708;29;20031;-73
2022/04/24 03:10:11;;;;;;;16.75;8.25;;;;;;;;;;4899950;29;20053;-72
2022/04/24 03:12:38;;;;;;;14.13;7.63;;;;;;;;;;4900126;29;20077;-73
2022/04/24 03:15:08;;;;;;;10.50;6.85;;;;;;;;;;4902204;29;20036;-72
2022/04/24 03:17:34;;;;;;;12.82;6.88;;;;;;;;;;4900150;29;20487;-72
2022/04/24 03:20:00;;;;;;;8.73;6.70;;;;;;;;;;4895596;29;20029;-77
2022/04/24 03:22:27;;;;;;;12.73;6.35;;;;;;;;;;4899300;29;20033;-72
2022/04/24 03:24:53;;;;;;;9.40;7.53;;;;;;;;;;4898037;29;20493;-74
2022/04/24 03:27:19;;;;;;;13.40;8.18;;;;;;;;;;4899678;29;20100;-73
2022/04/24 03:29:45;;;;;;;11.48;7.88;;;;;;;;;;4901723;29;20060;-72
2022/04/24 03:32:11;;;;;;;11.77;8.10;;;;;;;;;;4901068;29;20033;-73
2022/04/24 03:34:37;;;;;;;11.55;8.52;;;;;;;;;;4900538;29;20036;-72
2022/04/24 03:37:04;;;;;;;11.32;7.80;;;;;;;;;;4900803;29;20029;-75
2022/04/24 03:39:30;;;;;;;11.68;8.15;;;;;;;;;;4898011;29;20036;-73
2022/04/24 03:41:56;;;;;;;11.95;8.18;;;;;;;;;;4899035;29;20155;-72
2022/04/24 03:44:25;;;;;;;15.70;9.10;;;;;;;;;;4896706;29;20116;-72
2022/04/24 03:46:51;;;;;;;21.67;12.63;;;;;;;;;;4901654;29;20033;-72
2022/04/24 03:49:19;;;;;;;15.95;10.52;;;;;;;;;;4898711;29;20028;-72
2022/04/24 03:51:45;;;;;;;20.52;12.93;;;;;;;;;;4898979;29;20032;-72
2022/04/24 03:54:12;;;;;;;19.38;11.65;;;;;;;;;;4902127;29;20044;-72
2022/04/24 03:56:38;;;;;;;12.13;8.07;;;;;;;;;;4896578;29;20390;-72
2022/04/24 03:59:04;;;;;;;12.48;8.55;;;;;;;;;;4900315;29;20032;-72
2022/04/24 04:01:30;;;;;;;29.38;16.48;;;;;;;;;;4900775;29;20056;-74
2022/04/24 04:03:57;;;;;;;20.02;12.23;;;;;;;;;;4900151;29;20024;-72
2022/04/24 04:06:24;;;;;;;14.02;9.60;;;;;;;;;;4897714;29;20021;-72
2022/04/24 04:08:50;;;;;;;21.58;12.18;;;;;;;;;;4901333;29;20051;-72
2022/04/24 04:11:16;;;;;;;19.55;11.32;;;;;;;;;;4902696;29;20032;-77
2022/04/24 04:13:42;;;;;;;15.18;10.48;;;;;;;;;;4900342;29;20043;-74
2022/04/24 04:16:08;;;;;;;18.95;12.27;;;;;;;;;;4897582;29;20029;-72
2022/04/24 04:18:34;;;;;;;22.40;13.90;;;;;;;;;;4897379;29;20028;-74
2022/04/24 04:21:00;;;;;;;27.00;15.82;;;;;;;;;;4898787;29;20025;-72
2022/04/24 04:23:26;;;;;;;28.35;16.50;;;;;;;;;;4903668;29;20033;-71
2022/04/24 04:25:52;;;;;;;27.23;16.90;;;;;;;;;;4894322;29;20037;-74
2022/04/24 04:28:18;;;;;;;22.98;13.07;;;;;;;;;;4899020;29;20025;-72
2022/04/24 04:30:44;;;;;;;28.23;17.00;;;;;;;;;;4899011;29;20063;-72
2022/04/24 04:33:10;;;;;;;33.15;17.90;;;;;;;;;;4901648;29;20112;-73
2022/04/24 04:35:37;;;;;;;31.13;16.45;;;;;;;;;;4903292;29;20032;-73
2022/04/24 04:38:03;;;;;;;16.33;10.48;;;;;;;;;;4906691;29;20029;-77
2022/04/24 04:40:30;;;;;;;13.30;9.82;;;;;;;;;;4914000;29;20072;-73
2022/04/24 04:42:57;;;;;;;14.88;10.50;;;;;;;;;;4895030;29;20389;-72
2022/04/24 04:45:24;;;;;;;17.40;9.68;;;;;;;;;;4907052;29;20017;-71
2022/04/24 04:48:15;;;;;;;12.65;9.65;;;;;;;;;;4908103;29;20032;-76
2022/04/24 04:50:41;;;;;;;11.95;9.30;;;;;;;;;;4910458;29;20056;-78
2022/04/24 04:53:07;;;;;;;16.00;9.60;;;;;;;;;;4895429;29;20031;-73
2022/04/24 04:55:34;;;;;;;12.60;8.40;;;;;;;;;;4897059;29;20398;-73
2022/04/24 04:58:00;;;;;;;10.55;7.30;;;;;;;;;;4896974;29;20080;-79
2022/04/24 05:00:26;;;;;;;7.07;3.50;;;;;;;;;;4861418;29;20053;-70
2022/04/24 05:05:35;;;;;;;6.38;3.10;;;;;;;;;;5208269;23;20056;-75
2022/04/24 05:19:03;;;;;;;4.80;2.60;;;;;;;;;;5445730;23;20060;-81
2022/04/24 05:21:32;;;;;;;7.20;2.87;;;;;;;;;;4919127;29;20410;-70
2022/04/24 05:24:00;;;;;;;5.65;2.72;;;;;;;;;;4918966;29;20062;-70
2022/04/24 05:26:26;;;;;;;6.22;2.50;;;;;;;;;;4919970;29;20435;-75
2022/04/24 05:28:52;;;;;;;4.10;2.50;;;;;;;;;;4923502;29;20500;-75
2022/04/24 05:31:19;;;;;;;4.30;2.60;;;;;;;;;;4924262;29;20023;-71
2022/04/24 05:33:45;;;;;;;9.40;3.10;;;;;;;;;;4931420;29;20039;-76
2022/04/24 05:36:13;;;;;;;13.63;6.82;;;;;;;;;;4932284;29;20053;-78
2022/04/24 05:38:41;;;;;;;9.18;5.85;;;;;;;;;;4916867;29;20069;-78
2022/04/24 05:41:09;;;;;;;10.10;5.60;;;;;;;;;;4916536;29;20033;-79
2022/04/24 05:43:35;;;;;;;10.48;4.75;;;;;;;;;;4907137;29;20411;-79
2022/04/24 05:46:07;;;;;;;11.48;5.38;;;;;;;;;;4914085;29;20016;-72
2022/04/24 05:48:33;;;;;;;10.00;4.80;;;;;;;;;;4931356;29;20043;-71
2022/04/24 05:51:00;;;;;;;12.52;4.38;;;;;;;;;;4910140;29;20031;-77
2022/04/24 05:53:26;;;;;;;9.75;4.43;;;;;;;;;;4924179;29;20040;-76
2022/04/24 05:55:52;;;;;;;7.82;4.00;;;;;;;;;;4927145;29;20039;-71
2022/04/24 05:58:18;;;;;;;9.68;3.80;;;;;;;;;;4923106;29;20047;-71
2022/04/24 06:00:59;;;;;;;10.32;4.35;;;;;;;;;;4926082;29;20043;-77
2022/04/24 06:03:26;;;;;;;9.23;4.40;;;;;;;;;;4923919;29;20055;-71
2022/04/24 06:05:52;;;;;;;9.73;4.10;;;;;;;;;;4920990;29;20024;-70
2022/04/24 06:08:18;;;;;;;10.75;5.00;;;;;;;;;;4925516;29;20028;-71
2022/04/24 06:10:44;;;;;;;8.88;4.70;;;;;;;;;;4924436;29;20064;-70
2022/04/24 06:13:10;;;;;;;8.55;4.72;;;;;;;;;;4926029;29;20028;-70
2022/04/24 06:15:38;;;;;;;9.43;4.60;;;;;;;;;;4923222;29;20042;-70
2022/04/24 06:18:04;;;;;;;14.75;5.75;;;;;;;;;;4930033;29;20056;-70
2022/04/24 06:20:30;;;;;;;12.07;5.40;;;;;;;;;;4934348;29;20036;-78
2022/04/24 06:22:57;;;;;;;9.20;4.55;;;;;;;;;;4932168;29;20035;-77
2022/04/24 06:25:23;;;;;;;4.95;2.80;;;;;;;;;;4924464;29;20032;-73
2022/04/24 06:27:50;;;;;;;6.88;2.90;;;;;;;;;;4918178;29;20038;-89
2022/04/24 06:30:17;;;;;;;3.00;2.20;;;;;;;;;;4915533;29;20394;-76
2022/04/24 06:32:43;;;;;;;7.60;2.60;;;;;;;;;;4915589;29;20053;-90
2022/04/24 06:35:10;;;;;;;4.78;2.30;;;;;;;;;;4913995;29;20107;-71
2022/04/24 06:37:37;;;;;;;6.50;2.38;;;;;;;;;;4914618;29;20486;-76
2022/04/24 06:40:04;;;;;;;4.38;2.38;;;;;;;;;;4912617;29;20112;-90
2022/04/24 06:42:30;;;;;;;5.25;2.35;;;;;;;;;;4911730;29;20064;-90
2022/04/24 06:44:57;;;;;;;4.30;2.88;;;;;;;;;;4901717;29;20367;-80
2022/04/24 06:47:23;;;;;;;4.70;2.40;;;;;;;;;;4917130;29;20040;-82
2022/04/24 06:49:49;;;;;;;5.78;2.40;;;;;;;;;;4917178;29;20029;-86
2022/04/24 06:52:15;;;;;;;4.35;2.28;;;;;;;;;;4917886;29;20036;-80
2022/04/24 06:54:41;;;;;;;3.13;2.03;;;;;;;;;;4918131;29;20065;-89
2022/04/24 06:57:07;;;;;;;8.40;2.92;;;;;;;;;;4903086;29;20032;-83
2022/04/24 06:59:33;;;;;;;4.38;2.38;;;;;;;;;;4918824;29;20135;-88
2022/04/24 07:01:59;;;;;;;5.72;2.65;;;;;;;;;;4902415;29;20111;-76
2022/04/24 07:04:25;;;;;;;5.03;2.28;;;;;;;;;;4920651;29;20024;-75
2022/04/24 07:06:51;;;;;;;4.35;2.00;;;;;;;;;;4916044;29;20024;-91
2022/04/24 07:09:18;;;;;;;4.95;2.40;;;;;;;;;;4915555;29;20083;-82
2022/04/24 07:11:44;;;;;;;6.75;2.40;;;;;;;;;;4900773;29;20032;-87
2022/04/24 07:14:10;;;;;;;10.05;2.83;;;;;;;;;;4917748;29;20040;-76
2022/04/24 07:16:36;;;;;;;6.18;3.28;;;;;;;;;;4917720;29;20067;-75
2022/04/24 07:19:02;;;;;;;5.10;2.75;;;;;;;;;;4915008;29;20052;-83
2022/04/24 07:21:28;;;;;;;6.72;2.72;;;;;;;;;;4916300;29;20035;-69
2022/04/24 07:23:54;;;;;;;5.75;2.83;;;;;;;;;;4915067;29;20036;-91
2022/04/24 07:26:20;;;;;;;5.10;2.45;;;;;;;;;;4916330;29;20718;-74
2022/04/24 07:28:46;;;;;;;8.70;3.83;;;;;;;;;;4916594;29;20067;-72
2022/04/24 07:31:14;;;;;;;5.05;2.38;;;;;;;;;;4917699;29;20051;-71
2022/04/24 07:33:40;;;;;;;5.88;2.72;;;;;;;;;;4916739;29;20047;-80
2022/04/24 07:36:07;;;;;;;6.25;2.60;;;;;;;;;;4915914;29;20096;-72
2022/04/24 07:38:33;;;;;;;6.07;2.80;;;;;;;;;;4913987;29;20127;-82
2022/04/24 07:40:59;;;;;;;5.63;2.63;;;;;;;;;;4915676;29;20067;-69
2022/04/24 07:43:25;;;;;;;8.27;3.33;;;;;;;;;;4919819;29;20035;-80
2022/04/24 07:45:51;;;;;;;7.35;3.10;;;;;;;;;;4917401;29;20035;-73
2022/04/24 07:48:18;;;;;;;6.30;2.70;;;;;;;;;;4912281;29;20039;-84
2022/04/24 07:50:45;;;;;;;8.52;3.53;;;;;;;;;;4917072;29;20384;-69
2022/04/24 07:53:12;;;;;;;5.78;2.72;;;;;;;;;;4915492;29;20040;-70
2022/04/24 07:55:40;;;;;;;8.32;2.75;;;;;;;;;;4915757;29;20020;-79
2022/04/24 07:58:06;;;;;;;6.35;2.92;;;;;;;;;;4917837;29;20167;-80
2022/04/24 08:00:33;;;;;;;6.72;2.80;;;;;;;;;;4900792;29;20440;-69
2022/04/24 08:03:01;;;;;;;13.10;3.30;;;;;;;;;;4920623;29;20390;-69
2022/04/24 08:05:30;;;;;;;5.22;2.40;;;;;;;;;;4919215;29;20031;-76
2022/04/24 08:07:57;;;;;;;5.43;2.40;;;;;;;;;;4918953;29;20549;-69
2022/04/24 08:10:24;;;;;;;6.43;2.55;;;;;;;;;;4918571;29;20052;-69
2022/04/24 08:12:50;;;;;;;9.02;3.22;;;;;;;;;;4918677;29;20478;-68
2022/04/24 08:15:16;;;;;;;5.53;2.60;;;;;;;;;;4903167;29;20376;-69
2022/04/24 08:17:43;;;;;;;4.70;2.47;;;;;;;;;;4910753;29;21164;-76
2022/04/24 08:20:09;;;;;;;6.63;3.22;;;;;;;;;;4910745;29;20108;-70
2022/04/24 08:22:39;;;;;;;7.15;3.63;;;;;;;;;;4910903;29;20024;-68
2022/04/24 08:25:06;;;;;;;8.02;3.30;;;;;;;;;;4920469;29;20032;-68
2022/04/24 08:27:32;;;;;;;11.50;4.97;;;;;;;;;;4918461;29;20115;-68
2022/04/24 08:29:58;;;;;;;13.18;3.30;;;;;;;;;;4918250;29;20067;-80
2022/04/24 08:32:25;;;;;;;7.47;3.28;;;;;;;;;;4918436;29;20028;-70
2022/04/24 08:34:51;;;;;;;5.20;3.20;;;;;;;;;;4918417;29;20047;-69
2022/04/24 08:37:17;;;;;;;7.93;3.38;;;;;;;;;;4918229;29;20471;-81
2022/04/24 08:39:43;;;;;;;6.82;2.60;;;;;;;;;;4914584;29;20040;-69
2022/04/24 08:42:09;;;;;;;5.93;2.83;;;;;;;;;;4912275;29;20039;-70
2022/04/24 08:44:36;;;;;;;7.40;3.35;;;;;;;;;;4910508;29;20028;-70
2022/04/24 08:47:03;;;;;;;5.28;3.28;;;;;;;;;;4915081;29;20048;-69
2022/04/24 08:49:33;;;;;;;13.38;5.97;;;;;;;;;;4906228;29;20028;-70
2022/04/24 08:52:00;;;;;;;6.40;3.70;;;;;;;;;;4918998;29;20103;-70
2022/04/24 08:54:27;;;;;;;7.28;3.75;;;;;;;;;;4918169;29;20503;-69
2022/04/24 08:56:56;;;;;;;5.03;3.30;;;;;;;;;;4917678;29;20364;-70
2022/04/24 08:59:23;;;;;;;8.98;4.22;;;;;;;;;;4917186;29;20039;-70
2022/04/24 09:01:50;;;;;;;8.52;4.05;;;;;;;;;;4917691;29;20489;-70
2022/04/24 09:04:16;;;;;;;8.93;3.78;;;;;;;;;;4917095;29;20071;-86
2022/04/24 09:06:42;;;;;;;6.65;3.30;;;;;;;;;;4917532;29;20052;-69
2022/04/24 09:09:09;;;;;;;8.38;3.20;;;;;;;;;;4913440;29;20035;-70
2022/04/24 09:11:38;;;;;;;7.75;3.58;;;;;;;;;;4909565;29;20487;-70
2022/04/24 09:14:18;;;;;;;8.85;3.08;;;;;;;;;;4916984;29;20067;-72
2022/04/24 09:16:48;;;;;;;9.20;3.65;;;;;;;;;;4910498;29;20032;-71
2022/04/24 09:19:21;;;;;;;7.03;3.42;;;;;;;;;;4916774;29;20059;-69
2022/04/24 09:21:48;;;;;;;6.15;2.80;;;;;;;;;;4921773;29;20035;-70
2022/04/24 09:24:14;;;;;;;7.15;2.80;;;;;;;;;;4901033;29;20032;-74
2022/04/24 09:26:53;;;;;;;6.07;2.60;;;;;;;;;;4915998;29;20029;-70
2022/04/24 09:29:21;;;;;;;11.40;3.10;;;;;;;;;;4916225;29;20040;-75
2022/04/24 09:31:51;;;;;;;7.43;3.03;;;;;;;;;;4914542;29;20043;-75
2022/04/24 09:34:18;;;;;;;8.63;3.08;;;;;;;;;;4913640;29;20032;-70
2022/04/24 09:36:45;;;;;;;9.40;3.45;;;;;;;;;;4909468;29;20479;-69
2022/04/24 09:39:11;;;;;;;9.88;4.78;;;;;;;;;;4917051;29;20042;-69
2022/04/24 09:41:39;;;;;;;6.78;3.20;;;;;;;;;;4915910;29;20036;-69
2022/04/24 09:44:19;;;;;;;6.60;3.20;;;;;;;;;;4916769;29;20024;-69
2022/04/24 09:46:45;;;;;;;7.75;3.30;;;;;;;;;;4916730;29;20032;-69
2022/04/24 09:49:11;;;;;;;17.20;3.67;;;;;;;;;;4914834;29;20032;-80
2022/04/24 09:51:39;;;;;;;7.80;3.58;;;;;;;;;;4916160;29;20106;-70
2022/04/24 09:54:06;;;;;;;8.25;3.08;;;;;;;;;;4916335;29;20035;-69
2022/04/24 09:56:32;;;;;;;7.15;3.47;;;;;;;;;;4916494;29;20028;-83
2022/04/24 09:58:59;;;;;;;10.50;3.33;;;;;;;;;;4916681;29;20032;-76
2022/04/24 10:01:29;;;;;;;8.25;3.97;;;;;;;;;;4916584;29;20036;-79
2022/04/24 10:03:57;;;;;;;11.82;4.30;;;;;;;;;;4915796;29;20385;-78
2022/04/24 10:06:24;;;;;;;11.02;3.97;;;;;;;;;;4913039;29;20031;-77
2022/04/24 10:08:51;;;;;;;9.50;3.50;;;;;;;;;;4917040;29;20040;-70
2022/04/24 10:11:17;;;;;;;9.55;4.30;;;;;;;;;;4917337;29;20379;-69
2022/04/24 10:13:45;;;;;;;14.30;6.57;;;;;;;;;;4916937;29;20035;-70
2022/04/24 10:16:32;;;;;;;9.98;4.53;;;;;;;;;;4917425;29;20162;-84
2022/04/24 10:19:10;;;;;;;12.85;6.05;;;;;;;;;;4916869;29;20060;-75
2022/04/24 10:21:43;;;;;;;15.70;6.65;;;;;;;;;;4916678;29;20458;-75
2022/04/24 10:24:10;;;;;;;10.75;4.65;;;;;;;;;;4920869;29;20051;-73
2022/04/24 10:26:37;;;;;;;10.70;5.00;;;;;;;;;;4897989;29;20053;-85
2022/04/24 10:29:07;;;;;;;18.38;5.25;;;;;;;;;;4897973;29;20036;-72
2022/04/24 10:31:43;;;;;;;9.80;4.55;;;;;;;;;;4898265;29;20484;-77
2022/04/24 10:34:09;;;;;;;10.77;4.40;;;;;;;;;;4897948;29;20467;-84
2022/04/24 10:36:35;;;;;;;10.50;4.07;;;;;;;;;;4898279;29;20383;-69
2022/04/24 10:39:02;;;;;;;11.80;4.97;;;;;;;;;;4898096;29;20021;-72
2022/04/24 10:41:32;;;;;;;14.23;6.63;;;;;;;;;;4897920;29;20047;-70
2022/04/24 10:44:24;;;;;;;41.53;28.52;;;;;;;;;;4898153;29;20115;-70
2022/04/24 10:46:51;;;;;;;21.83;11.15;;;;;;;;;;4896105;29;20120;-82
2022/04/24 10:49:18;;;;;;;22.42;13.85;;;;;;;;;;4897921;29;20475;-84
2022/04/24 10:51:46;;;;;;;22.30;9.23;;;;;;;;;;4897901;29;20123;-80
2022/04/24 10:54:16;;;;;;;57.25;44.10;;;;;;;;;;4897958;29;20037;-75
2022/04/24 10:56:43;;;;;;;38.88;26.90;;;;;;;;;;4897812;29;20045;-85
2022/04/24 10:59:11;;;;;;;75.80;58.22;;;;;;;;;;4897848;29;20040;-80
2022/04/24 11:01:38;;;;;;;69.13;51.80;;;;;;;;;;4905000;29;20028;-69
2022/04/24 11:04:10;;;;;;;25.60;16.80;;;;;;;;;;4916807;29;20020;-69
2022/04/24 11:06:36;;;;;;;30.48;22.00;;;;;;;;;;4916571;29;20068;-69
2022/04/24 11:09:09;;;;;;;78.38;56.33;;;;;;;;;;4916300;29;20028;-75
2022/04/24 11:11:44;;;;;;;34.40;23.60;;;;;;;;;;4916157;29;20025;-70
2022/04/24 11:14:10;;;;;;;26.20;16.98;;;;;;;;;;4916416;29;20044;-69
2022/04/24 11:16:36;;;;;;;27.35;14.95;;;;;;;;;;4916492;29;20029;-69
2022/04/24 11:19:06;;;;;;;23.90;16.58;;;;;;;;;;4908117;29;20056;-85
2022/04/24 11:21:40;;;;;;;13.93;7.68;;;;;;;;;;4899373;29;20446;-69
2022/04/24 11:24:07;;;;;;;20.67;13.82;;;;;;;;;;4916390;29;20025;-71
2022/04/24 11:26:33;;;;;;;21.05;12.23;;;;;;;;;;4908094;29;20522;-69
2022/04/24 11:29:08;;;;;;;27.00;15.32;;;;;;;;;;4910104;29;20039;-69
2022/04/24 11:31:34;;;;;;;42.70;29.83;;;;;;;;;;4915296;29;20035;-83
2022/04/24 11:34:01;;;;;;;68.38;49.95;;;;;;;;;;4917507;29;20119;-70
2022/04/24 11:36:32;;;;;;;38.58;24.88;;;;;;;;;;4918609;29;20389;-72
2022/04/24 11:39:01;;;;;;;35.13;25.05;;;;;;;;;;4915968;29;20025;-84
2022/04/24 11:41:28;;;;;;;18.95;13.65;;;;;;;;;;4919616;29;20035;-70
2022/04/24 11:44:00;;;;;;;13.80;7.80;;;;;;;;;;4919558;29;20032;-70
2022/04/24 11:51:55;;;;;;;18.27;11.68;;;;;;;;;;4919583;29;20131;-69
2022/04/24 11:54:23;;;;;;;23.80;18.80;;;;;;;;;;4919366;29;20036;-71
2022/04/24 11:56:50;;;;;;;27.20;17.40;;;;;;;;;;4919496;29;20031;-70
2022/04/24 11:59:19;;;;;;;22.02;11.00;;;;;;;;;;4919282;29;20032;-70
2022/04/24 12:01:45;;;;;;;13.48;7.03;;;;;;;;;;4918839;29;20032;-70
2022/04/24 12:04:18;;;;;;;14.73;7.40;;;;;;;;;;4919140;29;20394;-69
2022/04/24 12:06:47;;;;;;;14.15;7.30;;;;;;;;;;4919257;29;20031;-70
2022/04/24 12:09:13;;;;;;;23.70;11.50;;;;;;;;;;4918994;29;20024;-70
2022/04/24 12:11:39;;;;;;;10.52;6.00;;;;;;;;;;4916837;29;20032;-69
2022/04/24 12:14:07;;;;;;;9.15;4.65;;;;;;;;;;4917699;29;20036;-76
2022/04/24 12:16:34;;;;;;;10.15;4.93;;;;;;;;;;4919001;29;20035;-71
2022/04/24 12:19:00;;;;;;;13.43;8.95;;;;;;;;;;4918565;29;20131;-70
2022/04/24 12:21:27;;;;;;;10.63;5.00;;;;;;;;;;4918688;29;20107;-70
2022/04/24 12:23:54;;;;;;;12.75;6.75;;;;;;;;;;4918774;29;20053;-70
2022/04/24 12:26:21;;;;;;;9.32;4.10;;;;;;;;;;4918973;29;20028;-70
2022/04/24 12:28:47;;;;;;;6.55;3.83;;;;;;;;;;4918633;29;20431;-71
2022/04/24 12:31:40;;;;;;;22.42;12.18;;;;;;;;;;4918323;29;20063;-70
2022/04/24 12:34:06;;;;;;;12.00;5.53;;;;;;;;;;4915277;29;20092;-70
2022/04/24 12:36:32;;;;;;;8.18;3.88;;;;;;;;;;4918759;29;20056;-70
2022/04/24 12:39:04;;;;;;;5.55;3.67;;;;;;;;;;4918612;29;20087;-71
2022/04/24 12:41:30;;;;;;;7.93;4.32;;;;;;;;;;4917995;29;20096;-70
2022/04/24 12:44:00;;;;;;;8.60;4.20;;;;;;;;;;4917531;29;20079;-70
2022/04/24 12:46:27;;;;;;;7.55;3.55;;;;;;;;;;4918392;29;20607;-70
2022/04/24 12:48:53;;;;;;;4.97;2.67;;;;;;;;;;4918287;29;20091;-71
2022/04/24 12:51:26;;;;;;;7.70;4.65;;;;;;;;;;4917862;29;20067;-70
2022/04/24 12:53:53;;;;;;;9.65;4.22;;;;;;;;;;4918162;29;20390;-70
2022/04/24 12:56:20;;;;;;;11.57;3.47;;;;;;;;;;4918245;29;20153;-73
2022/04/24 12:58:47;;;;;;;8.18;4.35;;;;;;;;;;4917988;29;20028;-70
2022/04/24 13:01:14;;;;;;;6.97;3.00;;;;;;;;;;4918109;29;20024;-70
2022/04/24 13:03:40;;;;;;;13.40;6.78;;;;;;;;;;4917760;29;20163;-70
2022/04/24 13:06:10;;;;;;;16.77;9.88;;;;;;;;;;4914826;29;20040;-72
2022/04/24 13:08:37;;;;;;;10.75;3.17;;;;;;;;;;4912874;29;20099;-69
2022/04/24 13:11:04;;;;;;;10.73;4.15;;;;;;;;;;4917973;29;20064;-70
2022/04/24 13:13:32;;;;;;;10.70;5.47;;;;;;;;;;4917765;29;20450;-71
2022/04/24 13:18:43;;;;;;;9.27;4.07;;;;;;;;;;4917708;29;20165;-81
2022/04/24 13:21:09;;;;;;;11.05;4.38;;;;;;;;;;4917226;29;20024;-77
2022/04/24 13:23:35;;;;;;;15.27;6.82;;;;;;;;;;4917640;29;20020;-72
2022/04/24 13:26:05;;;;;;;14.30;6.30;;;;;;;;;;4917825;29;20060;-84
2022/04/24 13:28:33;;;;;;;11.43;6.30;;;;;;;;;;4917641;29;20062;-71
2022/04/24 13:30:59;;;;;;;8.77;2.95;;;;;;;;;;4917326;29;20032;-77
2022/04/24 13:33:27;;;;;;;10.55;3.55;;;;;;;;;;4917656;29;20038;-72
2022/04/24 13:35:55;;;;;;;7.68;4.78;;;;;;;;;;4915811;29;20118;-81
2022/04/24 13:38:21;;;;;;;10.48;3.22;;;;;;;;;;4904548;29;20040;-70
2022/04/24 13:40:51;;;;;;;10.15;4.82;;;;;;;;;;4920847;29;20028;-70
2022/04/24 13:43:21;;;;;;;15.38;5.22;;;;;;;;;;4917061;29;20055;-84
2022/04/24 13:45:49;;;;;;;11.32;6.10;;;;;;;;;;4917081;29;20071;-82
2022/04/24 13:48:16;;;;;;;13.02;6.88;;;;;;;;;;4917076;29;20028;-79
2022/04/24 13:50:42;;;;;;;13.50;3.92;;;;;;;;;;4914838;29;20038;-71
2022/04/24 13:53:08;;;;;;;9.80;3.35;;;;;;;;;;4916514;29;20120;-71
2022/04/24 13:55:35;;;;;;;12.93;5.95;;;;;;;;;;4917963;29;20047;-74
2022/04/24 13:58:03;;;;;;;10.40;3.90;;;;;;;;;;4915789;29;20067;-72
2022/04/24 14:00:29;;;;;;;8.40;3.30;;;;;;;;;;4917174;29;20103;-84
2022/04/24 14:02:57;;;;;;;8.85;4.15;;;;;;;;;;4916305;29;20032;-70
2022/04/24 14:05:25;;;;;;;11.82;6.07;;;;;;;;;;4912288;29;20491;-85
2022/04/24 14:07:51;;;;;;;13.60;6.13;;;;;;;;;;4911853;29;20179;-70
2022/04/24 14:10:18;;;;;;;10.68;4.10;;;;;;;;;;4916937;29;20467;-69
2022/04/24 14:12:44;;;;;;;9.77;4.85;;;;;;;;;;4917153;29;20115;-77
2022/04/24 14:15:10;;;;;;;10.45;4.75;;;;;;;;;;4917050;29;20047;-70
2022/04/24 14:17:37;;;;;;;11.57;5.07;;;;;;;;;;4916379;29;20550;-79
2022/04/24 14:20:03;;;;;;;14.05;7.15;;;;;;;;;;4916882;29;20052;-69
2022/04/24 14:22:30;;;;;;;13.32;3.60;;;;;;;;;;4917174;29;20025;-83
2022/04/24 14:24:56;;;;;;;17.35;4.72;;;;;;;;;;4916869;29;20042;-86
2022/04/24 14:27:22;;;;;;;14.10;4.63;;;;;;;;;;4916680;29;20032;-71
2022/04/24 14:29:48;;;;;;;11.60;4.03;;;;;;;;;;4917038;29;20395;-70
2022/04/24 14:32:14;;;;;;;11.98;3.67;;;;;;;;;;4917101;29;20082;-70
2022/04/24 14:34:44;;;;;;;17.80;6.63;;;;;;;;;;4916725;29;20201;-71
2022/04/24 14:37:10;;;;;;;10.38;3.35;;;;;;;;;;4918256;29;20029;-76
2022/04/24 14:39:36;;;;;;;13.00;3.60;;;;;;;;;;4920539;29;20028;-86
2022/04/24 14:42:05;;;;;;;12.23;3.97;;;;;;;;;;4917048;29;20029;-71
2022/04/24 14:44:32;;;;;;;13.50;3.60;;;;;;;;;;4916789;29;20133;-69
2022/04/24 14:58:03;;;;;;;18.95;8.95;;;;;;;;;;4920042;29;20455;-71
2022/04/24 15:00:30;;;;;;;10.80;3.35;;;;;;;;;;4916381;29;20040;-75
2022/04/24 15:02:56;;;;;;;14.65;4.97;;;;;;;;;;4916803;29;20020;-72
2022/04/24 15:05:24;;;;;;;18.90;7.68;;;;;;;;;;4916770;29;20486;-73